Time;durP1;ratioP1;P1;durP2;ratioP2;P2;SDS_P1;SDS_P2;PMS_P1;PMS_P2;Temp;Humidity;BMP_temperature;BMP_pressure;BME280_temperature;BME280_humidity;BME280_pressure;Samples;Min_cycle;Max_cycle;Signal;HPM_P1;HPM_P2
2023/01/14 00:01:51;;;;;;;1.17;1.08;;;;;;;;;;5070847;28;20201;-86
2023/01/14 00:04:20;;;;;;;2.80;1.70;;;;;;;;;;5070578;28;20193;-86
2023/01/14 00:06:50;;;;;;;3.40;1.20;;;;;;;;;;5070501;28;20229;-86
2023/01/14 00:09:17;;;;;;;1.65;1.50;;;;;;;;;;5068734;28;20235;-86
2023/01/14 00:11:49;;;;;;;2.08;1.23;;;;;;;;;;5070677;28;20556;-86
2023/01/14 00:14:19;;;;;;;1.63;1.20;;;;;;;;;;5070473;28;20220;-86
2023/01/14 00:16:47;;;;;;;1.92;0.93;;;;;;;;;;5070625;28;20640;-86
2023/01/14 00:19:14;;;;;;;1.33;1.13;;;;;;;;;;5069750;28;20264;-86
2023/01/14 00:21:44;;;;;;;1.77;1.10;;;;;;;;;;5070626;28;20212;-87
2023/01/14 00:24:12;;;;;;;2.45;1.33;;;;;;;;;;5073249;28;20294;-86
2023/01/14 00:26:40;;;;;;;1.70;1.08;;;;;;;;;;5074016;28;20239;-87
2023/01/14 00:29:09;;;;;;;3.10;1.23;;;;;;;;;;5073417;28;20225;-86
2023/01/14 00:31:37;;;;;;;3.50;1.20;;;;;;;;;;5073777;28;20204;-86
2023/01/14 00:34:04;;;;;;;1.90;0.85;;;;;;;;;;5073472;28;20914;-87
2023/01/14 00:36:32;;;;;;;0.80;0.73;;;;;;;;;;5073702;28;20246;-87
2023/01/14 00:39:01;;;;;;;0.80;0.80;;;;;;;;;;5073013;28;20217;-86
2023/01/14 00:41:29;;;;;;;3.33;1.65;;;;;;;;;;5073413;28;20673;-86
2023/01/14 00:43:58;;;;;;;1.67;1.30;;;;;;;;;;5073586;28;20201;-86
2023/01/14 00:46:30;;;;;;;1.40;1.23;;;;;;;;;;5073367;28;20292;-87
2023/01/14 00:48:58;;;;;;;6.60;1.25;;;;;;;;;;5072602;28;20239;-86
2023/01/14 00:51:26;;;;;;;1.30;0.90;;;;;;;;;;5073747;28;20212;-86
2023/01/14 00:53:53;;;;;;;1.52;1.02;;;;;;;;;;5073475;28;20212;-86
2023/01/14 00:56:24;;;;;;;2.45;1.30;;;;;;;;;;5073442;28;20224;-87
2023/01/14 00:58:52;;;;;;;2.15;1.30;;;;;;;;;;5072336;28;20224;-87
2023/01/14 01:01:19;;;;;;;2.22;1.45;;;;;;;;;;5053231;28;20233;-87
2023/01/14 01:03:49;;;;;;;2.05;1.63;;;;;;;;;;5053273;28;20202;-86
2023/01/14 01:06:18;;;;;;;1.30;0.90;;;;;;;;;;5053087;28;20279;-86
2023/01/14 01:08:46;;;;;;;1.50;0.95;;;;;;;;;;5052572;28;20261;-87
2023/01/14 01:11:13;;;;;;;2.10;1.23;;;;;;;;;;5051632;28;20204;-87
2023/01/14 01:13:43;;;;;;;2.33;1.60;;;;;;;;;;5053190;28;20301;-86
2023/01/14 01:16:14;;;;;;;4.43;1.85;;;;;;;;;;5053048;28;20225;-87
2023/01/14 01:18:42;;;;;;;2.92;1.48;;;;;;;;;;5052403;28;20611;-86
2023/01/14 01:21:14;;;;;;;2.25;1.50;;;;;;;;;;5052903;28;20220;-87
2023/01/14 01:23:43;;;;;;;1.33;1.10;;;;;;;;;;5052640;28;20198;-87
2023/01/14 01:26:15;;;;;;;4.30;1.90;;;;;;;;;;5053288;28;20202;-87
2023/01/14 01:28:45;;;;;;;2.05;1.05;;;;;;;;;;5052266;28;20247;-87
2023/01/14 01:31:14;;;;;;;1.33;1.23;;;;;;;;;;5052757;28;20215;-86
2023/01/14 01:33:42;;;;;;;2.53;1.30;;;;;;;;;;5052216;28;20212;-86
2023/01/14 01:36:14;;;;;;;4.30;1.40;;;;;;;;;;5051747;28;20309;-86
2023/01/14 01:38:42;;;;;;;3.50;1.45;;;;;;;;;;5052006;28;20304;-86
2023/01/14 01:41:15;;;;;;;1.40;1.10;;;;;;;;;;5052656;28;20201;-86
2023/01/14 01:44:07;;;;;;;2.90;1.92;;;;;;;;;;5052391;28;20259;-86
2023/01/14 01:46:36;;;;;;;1.08;1.05;;;;;;;;;;5052363;28;20201;-86
2023/01/14 01:49:09;;;;;;;1.48;1.00;;;;;;;;;;5051818;28;20221;-86
2023/01/14 01:51:44;;;;;;;1.20;1.10;;;;;;;;;;5052249;28;20292;-86
2023/01/14 01:54:12;;;;;;;2.33;1.30;;;;;;;;;;5052404;28;20293;-86
2023/01/14 01:56:42;;;;;;;2.17;1.17;;;;;;;;;;5052135;28;20225;-86
2023/01/14 01:59:12;;;;;;;1.73;1.25;;;;;;;;;;5051705;28;20316;-86
2023/01/14 02:01:40;;;;;;;1.95;1.40;;;;;;;;;;5052238;28;20662;-86
2023/01/14 02:04:08;;;;;;;3.00;1.13;;;;;;;;;;5052062;28;20198;-86
2023/01/14 02:06:36;;;;;;;1.48;1.13;;;;;;;;;;5052121;28;20198;-86
2023/01/14 02:09:03;;;;;;;5.65;1.58;;;;;;;;;;5050961;28;20312;-86
2023/01/14 02:11:57;;;;;;;1.38;1.20;;;;;;;;;;5051824;28;20201;-86
2023/01/14 02:14:39;;;;;;;1.10;0.98;;;;;;;;;;5050202;28;20292;-86
2023/01/14 02:17:18;;;;;;;4.03;1.77;;;;;;;;;;5051832;28;20200;-86
2023/01/14 02:20:04;;;;;;;2.72;1.40;;;;;;;;;;5051021;28;20228;-86
2023/01/14 02:22:59;;;;;;;2.80;1.38;;;;;;;;;;5051974;28;20743;-86
2023/01/14 02:25:57;;;;;;;3.53;1.58;;;;;;;;;;5051476;28;20294;-86
2023/01/14 02:28:34;;;;;;;1.33;1.30;;;;;;;;;;5050918;28;20225;-86
2023/01/14 02:34:52;;;;;;;3.03;1.45;;;;;;;;;;5050232;28;20703;-85
2023/01/14 02:37:28;;;;;;;2.67;1.50;;;;;;;;;;5051603;28;20696;-85
2023/01/14 02:40:02;;;;;;;2.47;1.20;;;;;;;;;;5050866;28;20232;-86
2023/01/14 02:46:28;;;;;;;1.25;1.00;;;;;;;;;;5050989;28;20283;-86
2023/01/14 02:48:56;;;;;;;0.73;0.73;;;;;;;;;;5049496;28;20257;-86
2023/01/14 02:51:26;;;;;;;1.38;1.20;;;;;;;;;;5051431;28;20655;-87
2023/01/14 02:53:53;;;;;;;2.15;1.10;;;;;;;;;;5051176;28;20210;-86
2023/01/14 02:56:21;;;;;;;1.83;1.40;;;;;;;;;;5051078;28;20243;-86
2023/01/14 02:59:22;;;;;;;1.63;1.38;;;;;;;;;;5050492;28;20272;-86
2023/01/14 03:02:07;;;;;;;3.47;1.40;;;;;;;;;;5051255;28;20284;-86
2023/01/14 03:04:50;;;;;;;1.77;1.48;;;;;;;;;;5051095;28;20650;-87
2023/01/14 03:07:23;;;;;;;4.55;1.35;;;;;;;;;;5051036;28;20205;-86
2023/01/14 03:10:00;;;;;;;1.75;1.10;;;;;;;;;;5049648;28;20217;-87
2023/01/14 03:12:37;;;;;;;4.68;1.58;;;;;;;;;;5051248;28;20292;-86
2023/01/14 03:15:13;;;;;;;3.92;1.40;;;;;;;;;;5050950;28;20296;-86
2023/01/14 03:17:45;;;;;;;2.70;1.10;;;;;;;;;;5051074;28;20248;-86
2023/01/14 03:20:19;;;;;;;2.30;1.15;;;;;;;;;;5050442;28;20324;-86
2023/01/14 03:22:49;;;;;;;2.10;1.45;;;;;;;;;;5051315;28;20240;-86
2023/01/14 03:25:18;;;;;;;2.63;1.30;;;;;;;;;;5050783;28;20280;-87
2023/01/14 03:27:48;;;;;;;2.35;1.50;;;;;;;;;;5050786;28;20284;-86
2023/01/14 03:34:00;;;;;;;2.65;1.20;;;;;;;;;;5049804;28;20196;-86
2023/01/14 03:36:30;;;;;;;2.63;1.20;;;;;;;;;;5051913;28;20620;-86
2023/01/14 03:39:03;;;;;;;3.97;1.30;;;;;;;;;;5051309;28;20228;-86
2023/01/14 03:44:36;;;;;;;3.25;1.20;;;;;;;;;;5009787;28;20199;-86
2023/01/14 03:47:04;;;;;;;1.13;1.02;;;;;;;;;;5010389;28;20213;-85
2023/01/14 03:49:31;;;;;;;1.83;1.20;;;;;;;;;;5029678;28;20221;-86
2023/01/14 03:52:04;;;;;;;3.38;2.05;;;;;;;;;;5051889;28;20212;-85
2023/01/14 03:54:39;;;;;;;3.63;1.52;;;;;;;;;;5052288;28;20193;-85
2023/01/14 03:57:10;;;;;;;1.60;1.27;;;;;;;;;;5051830;28;20304;-85
2023/01/14 03:59:45;;;;;;;1.83;1.20;;;;;;;;;;5061568;28;20282;-85
2023/01/14 04:02:14;;;;;;;1.80;1.40;;;;;;;;;;5075837;28;20675;-86
2023/01/14 04:04:43;;;;;;;2.53;1.40;;;;;;;;;;5075625;28;20657;-85
2023/01/14 04:07:11;;;;;;;3.58;1.73;;;;;;;;;;5075902;28;20219;-85
2023/01/14 04:09:40;;;;;;;0.98;0.75;;;;;;;;;;5072705;28;20274;-86
2023/01/14 04:12:08;;;;;;;5.22;1.35;;;;;;;;;;5075750;28;20287;-86
2023/01/14 04:17:20;;;;;;;2.17;1.40;;;;;;;;;;5075137;28;20286;-85
2023/01/14 04:19:49;;;;;;;1.85;1.20;;;;;;;;;;5074971;28;20263;-85
2023/01/14 04:22:16;;;;;;;1.33;1.10;;;;;;;;;;5075470;28;20200;-86
2023/01/14 04:24:45;;;;;;;3.55;1.48;;;;;;;;;;5075245;28;20280;-86
2023/01/14 04:27:12;;;;;;;1.92;1.10;;;;;;;;;;5075389;28;20196;-85
2023/01/14 04:29:40;;;;;;;4.43;2.13;;;;;;;;;;5067667;28;20225;-86
2023/01/14 04:32:07;;;;;;;1.77;1.15;;;;;;;;;;5055180;28;20645;-86
2023/01/14 04:34:35;;;;;;;1.52;1.10;;;;;;;;;;5055311;28;20214;-85
2023/01/14 04:37:03;;;;;;;2.28;1.15;;;;;;;;;;5055042;28;20248;-86
2023/01/14 04:39:30;;;;;;;2.60;1.30;;;;;;;;;;5054354;28;20574;-86
2023/01/14 04:44:44;;;;;;;2.28;1.60;;;;;;;;;;5054872;28;20213;-85
2023/01/14 04:47:12;;;;;;;1.35;1.20;;;;;;;;;;5054911;28;20213;-85
2023/01/14 04:49:39;;;;;;;2.65;1.52;;;;;;;;;;5054459;28;20223;-85
2023/01/14 04:52:07;;;;;;;1.40;1.05;;;;;;;;;;5054918;28;20286;-85
2023/01/14 04:54:34;;;;;;;1.80;1.65;;;;;;;;;;5054666;28;20658;-85
2023/01/14 04:57:03;;;;;;;4.18;1.40;;;;;;;;;;5054532;28;20715;-85
2023/01/14 04:59:31;;;;;;;2.65;1.50;;;;;;;;;;5059586;28;20339;-85
2023/01/14 05:01:58;;;;;;;2.30;1.00;;;;;;;;;;5074650;28;20761;-86
2023/01/14 05:04:26;;;;;;;4.22;1.50;;;;;;;;;;5074559;28;20204;-85
2023/01/14 05:06:54;;;;;;;1.42;1.17;;;;;;;;;;5074540;28;20212;-86
2023/01/14 05:09:22;;;;;;;5.07;1.63;;;;;;;;;;5073480;28;20362;-86
2023/01/14 05:11:49;;;;;;;3.67;1.48;;;;;;;;;;5074483;28;20280;-85
2023/01/14 05:14:18;;;;;;;2.70;1.67;;;;;;;;;;5074441;28;20284;-86
2023/01/14 05:16:46;;;;;;;1.08;1.00;;;;;;;;;;5074534;28;20303;-85
2023/01/14 05:19:13;;;;;;;1.45;1.10;;;;;;;;;;5074172;28;20694;-86
2023/01/14 05:21:41;;;;;;;2.55;1.42;;;;;;;;;;5074097;28;20207;-86
2023/01/14 05:24:09;;;;;;;4.38;1.65;;;;;;;;;;5074143;28;20292;-86
2023/01/14 05:26:36;;;;;;;1.63;1.20;;;;;;;;;;5074689;28;20209;-86
2023/01/14 05:29:04;;;;;;;3.00;1.30;;;;;;;;;;5071654;28;20307;-86
2023/01/14 05:31:33;;;;;;;4.22;1.58;;;;;;;;;;5054003;28;20206;-85
2023/01/14 05:34:00;;;;;;;2.85;1.73;;;;;;;;;;5054159;28;20575;-85
2023/01/14 05:36:28;;;;;;;4.97;1.50;;;;;;;;;;5054083;28;20201;-86
2023/01/14 05:38:56;;;;;;;4.10;1.30;;;;;;;;;;5053037;28;20255;-85
2023/01/14 05:41:23;;;;;;;4.22;1.50;;;;;;;;;;5054254;28;20208;-88
2023/01/14 05:46:37;;;;;;;9.20;1.98;;;;;;;;;;5053927;28;20925;-87
2023/01/14 05:49:04;;;;;;;2.65;1.63;;;;;;;;;;5053207;28;20220;-87
2023/01/14 05:51:32;;;;;;;1.75;1.60;;;;;;;;;;5053867;28;20280;-88
2023/01/14 05:53:59;;;;;;;1.10;1.00;;;;;;;;;;5053947;28;20199;-87
2023/01/14 05:56:27;;;;;;;5.38;1.98;;;;;;;;;;5053937;28;20207;-87
2023/01/14 05:58:55;;;;;;;2.65;1.48;;;;;;;;;;5053872;28;20229;-88
2023/01/14 06:06:54;;;;;;;3.17;1.27;;;;;;;;;;5073561;28;20184;-88
2023/01/14 06:09:22;;;;;;;2.80;1.60;;;;;;;;;;5072478;28;20315;-88
2023/01/14 06:12:01;;;;;;;1.92;1.08;;;;;;;;;;5073460;28;20280;-88
2023/01/14 06:14:30;;;;;;;4.65;1.27;;;;;;;;;;5073519;28;20201;-88
2023/01/14 06:16:57;;;;;;;4.32;1.55;;;;;;;;;;5073614;28;20251;-88
2023/01/14 06:19:26;;;;;;;1.63;1.10;;;;;;;;;;5072715;28;20213;-88
2023/01/14 06:21:54;;;;;;;4.72;2.05;;;;;;;;;;5072733;28;20291;-88
2023/01/14 06:24:21;;;;;;;2.20;1.13;;;;;;;;;;5073602;28;20299;-88
2023/01/14 06:26:49;;;;;;;4.68;1.52;;;;;;;;;;5073415;28;20287;-87
2023/01/14 06:29:16;;;;;;;2.38;1.27;;;;;;;;;;5068917;28;20245;-88
2023/01/14 06:31:44;;;;;;;3.80;1.40;;;;;;;;;;5053311;28;20224;-88
2023/01/14 06:34:12;;;;;;;2.63;1.50;;;;;;;;;;5052929;28;20236;-88
2023/01/14 06:36:41;;;;;;;2.10;1.25;;;;;;;;;;5053358;28;20230;-88
2023/01/14 06:39:08;;;;;;;2.50;1.50;;;;;;;;;;5052103;28;20221;-87
2023/01/14 06:41:36;;;;;;;6.72;1.67;;;;;;;;;;5052725;28;20213;-88
2023/01/14 06:44:04;;;;;;;2.63;1.40;;;;;;;;;;5052900;28;20214;-88
2023/01/14 06:46:31;;;;;;;1.52;1.27;;;;;;;;;;5052710;28;20658;-88
2023/01/14 06:49:42;;;;;;;3.08;2.28;;;;;;;;;;5052291;28;20311;-87
2023/01/14 06:52:12;;;;;;;3.15;1.23;;;;;;;;;;5052947;28;20203;-87
2023/01/14 06:54:39;;;;;;;2.97;1.60;;;;;;;;;;5052640;28;20288;-88
2023/01/14 06:57:07;;;;;;;3.67;1.85;;;;;;;;;;5052718;28;20676;-88
2023/01/14 06:59:34;;;;;;;1.75;1.30;;;;;;;;;;5058208;28;20315;-88
2023/01/14 07:02:02;;;;;;;2.60;1.60;;;;;;;;;;5072711;28;20287;-88
2023/01/14 07:04:30;;;;;;;2.70;1.45;;;;;;;;;;5073062;28;20288;-88
2023/01/14 07:06:58;;;;;;;7.30;2.20;;;;;;;;;;5072420;28;20669;-87
2023/01/14 07:09:27;;;;;;;3.47;1.75;;;;;;;;;;5071798;28;20221;-88
2023/01/14 07:11:54;;;;;;;7.95;3.35;;;;;;;;;;5072582;28;20288;-87
2023/01/14 07:14:22;;;;;;;4.95;1.98;;;;;;;;;;5072580;28;20283;-87
2023/01/14 07:16:49;;;;;;;5.55;2.10;;;;;;;;;;5072576;28;20624;-88
2023/01/14 07:19:17;;;;;;;7.70;2.25;;;;;;;;;;5072008;28;20229;-88
2023/01/14 07:21:44;;;;;;;3.70;1.83;;;;;;;;;;5072294;28;20200;-88
2023/01/14 07:24:12;;;;;;;3.25;1.50;;;;;;;;;;5072420;28;20204;-88
2023/01/14 07:26:41;;;;;;;7.75;2.10;;;;;;;;;;5072465;28;20232;-88
2023/01/14 07:29:10;;;;;;;1.75;1.40;;;;;;;;;;5069481;28;20249;-87
2023/01/14 07:31:37;;;;;;;2.70;1.73;;;;;;;;;;5052415;28;20293;-88
2023/01/14 07:34:05;;;;;;;4.95;1.83;;;;;;;;;;5055745;28;20224;-88
2023/01/14 07:36:32;;;;;;;5.05;2.45;;;;;;;;;;5056746;28;20284;-88
2023/01/14 07:39:00;;;;;;;3.33;1.60;;;;;;;;;;5056063;28;20309;-88
2023/01/14 07:41:28;;;;;;;7.28;1.95;;;;;;;;;;5057148;28;20598;-88
2023/01/14 07:43:57;;;;;;;4.20;2.45;;;;;;;;;;5056304;28;20676;-87
2023/01/14 07:46:24;;;;;;;5.60;1.90;;;;;;;;;;5056367;28;20646;-88
2023/01/14 07:48:52;;;;;;;4.57;2.10;;;;;;;;;;5056310;28;20412;-87
2023/01/14 07:51:20;;;;;;;7.82;2.85;;;;;;;;;;5056079;28;20209;-88
2023/01/14 07:53:48;;;;;;;9.23;2.72;;;;;;;;;;5056319;28;20201;-88
2023/01/14 07:56:16;;;;;;;8.40;2.42;;;;;;;;;;5056012;28;20625;-88
2023/01/14 07:58:43;;;;;;;7.38;1.83;;;;;;;;;;5055879;28;20674;-88
2023/01/14 08:01:12;;;;;;;5.15;2.08;;;;;;;;;;5075589;28;20255;-87
2023/01/14 08:03:40;;;;;;;3.50;1.67;;;;;;;;;;5076270;28;20228;-88
2023/01/14 08:06:08;;;;;;;6.25;2.00;;;;;;;;;;5076020;28;20208;-88
2023/01/14 08:08:36;;;;;;;5.72;2.30;;;;;;;;;;5075495;28;20300;-89
2023/01/14 08:11:04;;;;;;;6.97;2.30;;;;;;;;;;5075574;28;20204;-85
2023/01/14 08:13:32;;;;;;;3.30;1.60;;;;;;;;;;5075612;28;20197;-86
2023/01/14 08:16:01;;;;;;;5.55;2.00;;;;;;;;;;5076104;28;20236;-87
2023/01/14 08:18:31;;;;;;;6.32;2.25;;;;;;;;;;5075119;28;20225;-85
2023/01/14 08:20:59;;;;;;;4.43;1.92;;;;;;;;;;5075582;28;20284;-89
2023/01/14 08:23:27;;;;;;;3.08;1.67;;;;;;;;;;5076270;28;20612;-87
2023/01/14 08:25:55;;;;;;;4.55;1.83;;;;;;;;;;5075845;28;20646;-89
2023/01/14 08:28:22;;;;;;;4.97;2.38;;;;;;;;;;5075375;28;20293;-86
2023/01/14 08:30:50;;;;;;;4.90;2.22;;;;;;;;;;5075475;28;20291;-86
2023/01/14 08:33:17;;;;;;;2.97;1.92;;;;;;;;;;5075341;28;20649;-87
2023/01/14 08:35:46;;;;;;;2.75;1.88;;;;;;;;;;5074645;28;20295;-88
2023/01/14 08:38:13;;;;;;;2.78;1.67;;;;;;;;;;5072764;28;20308;-87
2023/01/14 08:40:41;;;;;;;2.75;1.85;;;;;;;;;;5072398;28;20224;-86
2023/01/14 08:43:08;;;;;;;7.63;2.47;;;;;;;;;;5073661;28;20689;-86
2023/01/14 08:45:36;;;;;;;3.88;1.45;;;;;;;;;;5073684;28;20299;-87
2023/01/14 08:48:04;;;;;;;6.93;2.33;;;;;;;;;;5073069;28;20292;-87
2023/01/14 08:50:31;;;;;;;4.70;1.98;;;;;;;;;;5073635;28;20308;-86
2023/01/14 08:53:00;;;;;;;4.72;2.00;;;;;;;;;;5073769;28;20494;-87
2023/01/14 08:55:28;;;;;;;3.20;1.85;;;;;;;;;;5073494;28;20255;-87
2023/01/14 08:57:57;;;;;;;3.22;1.95;;;;;;;;;;5072856;28;20197;-89
2023/01/14 09:00:25;;;;;;;4.10;2.35;;;;;;;;;;5059854;28;20237;-87
2023/01/14 09:02:53;;;;;;;4.25;2.15;;;;;;;;;;5053336;28;20228;-87
2023/01/14 09:05:20;;;;;;;3.40;1.83;;;;;;;;;;5053372;28;20207;-88
2023/01/14 09:18:50;;;;;;;5.68;2.03;;;;;;;;;;5052464;28;20220;-87
2023/01/14 09:21:17;;;;;;;4.05;1.70;;;;;;;;;;5053148;28;20236;-88
2023/01/14 09:23:45;;;;;;;7.75;2.35;;;;;;;;;;5053023;28;20194;-88
2023/01/14 09:26:14;;;;;;;6.15;1.95;;;;;;;;;;5052795;28;20205;-88
2023/01/14 09:28:42;;;;;;;7.65;1.98;;;;;;;;;;5052561;28;20430;-88
2023/01/14 09:31:09;;;;;;;6.25;2.05;;;;;;;;;;5107916;22;20224;-79
2023/01/14 09:33:37;;;;;;;2.97;1.73;;;;;;;;;;5094997;28;20235;-79
2023/01/14 09:36:05;;;;;;;7.50;2.85;;;;;;;;;;5094613;28;20204;-80
2023/01/14 09:38:32;;;;;;;5.68;2.33;;;;;;;;;;5095907;28;20291;-77
2023/01/14 09:41:00;;;;;;;8.60;2.42;;;;;;;;;;5104441;28;20224;-82
2023/01/14 09:43:31;;;;;;;6.47;2.72;;;;;;;;;;5108950;28;20621;-83
2023/01/14 09:46:00;;;;;;;3.85;2.05;;;;;;;;;;5108940;28;20264;-82
2023/01/14 09:49:25;;;;;;;5.03;2.55;;;;;;;;;;5106656;28;20641;-85
2023/01/14 09:52:43;;;;;;;4.95;2.50;;;;;;;;;;5100011;28;20242;-85
2023/01/14 09:55:17;;;;;;;8.32;3.00;;;;;;;;;;5094708;28;20200;-82
2023/01/14 09:57:52;;;;;;;4.28;2.55;;;;;;;;;;5095946;28;20195;-80
2023/01/14 10:00:39;;;;;;;5.95;2.05;;;;;;;;;;5094049;28;20232;-81
2023/01/14 10:03:28;;;;;;;8.73;2.08;;;;;;;;;;5095332;28;20586;-81
2023/01/14 10:05:59;;;;;;;8.75;2.58;;;;;;;;;;5094753;28;20587;-80
2023/01/14 10:08:29;;;;;;;5.32;2.72;;;;;;;;;;5094317;28;20205;-82
2023/01/14 10:10:57;;;;;;;4.75;2.17;;;;;;;;;;5094265;28;20230;-81
2023/01/14 10:13:28;;;;;;;4.35;2.13;;;;;;;;;;5094927;28;20287;-81
2023/01/14 10:19:42;;;;;;;7.40;3.58;;;;;;;;;;5091731;28;20219;-84
2023/01/14 10:22:15;;;;;;;4.63;2.38;;;;;;;;;;5094746;28;20246;-79
2023/01/14 10:24:43;;;;;;;4.55;2.10;;;;;;;;;;5094809;28;20672;-79
2023/01/14 10:27:16;;;;;;;7.13;2.40;;;;;;;;;;5094332;28;20933;-79
2023/01/14 10:29:45;;;;;;;5.32;2.00;;;;;;;;;;5093001;28;20285;-79
2023/01/14 10:32:15;;;;;;;4.78;2.22;;;;;;;;;;5094607;28;20200;-79
2023/01/14 10:34:46;;;;;;;5.20;2.10;;;;;;;;;;5094616;28;20203;-80
2023/01/14 10:37:15;;;;;;;11.45;3.08;;;;;;;;;;5093643;28;20299;-79
2023/01/14 10:39:48;;;;;;;6.00;2.28;;;;;;;;;;5093088;28;20307;-79
2023/01/14 10:42:16;;;;;;;2.25;1.70;;;;;;;;;;5093300;28;20672;-79
2023/01/14 10:44:44;;;;;;;3.60;1.77;;;;;;;;;;5093332;28;20296;-80
2023/01/14 10:47:14;;;;;;;4.10;2.10;;;;;;;;;;5093945;28;20208;-81
2023/01/14 10:49:46;;;;;;;4.95;1.98;;;;;;;;;;5091060;28;20235;-80
2023/01/14 10:52:25;;;;;;;3.85;1.98;;;;;;;;;;5088171;28;20269;-79
2023/01/14 10:55:00;;;;;;;5.63;2.20;;;;;;;;;;5081663;28;20208;-78
2023/01/14 10:57:30;;;;;;;5.53;2.20;;;;;;;;;;5073362;28;20291;-80
2023/01/14 10:59:58;;;;;;;5.43;1.70;;;;;;;;;;5085532;28;20275;-80
2023/01/14 11:02:37;;;;;;;3.58;2.20;;;;;;;;;;5092685;28;20637;-80
2023/01/14 11:05:22;;;;;;;4.82;1.98;;;;;;;;;;5092679;28;20210;-80
2023/01/14 11:07:50;;;;;;;6.88;2.60;;;;;;;;;;5093129;28;20200;-79
2023/01/14 11:10:22;;;;;;;3.72;2.10;;;;;;;;;;5092393;28;20227;-81
2023/01/14 11:12:51;;;;;;;3.88;2.17;;;;;;;;;;5093612;28;20660;-80
2023/01/14 11:15:38;;;;;;;7.60;2.00;;;;;;;;;;5093786;28;20201;-80
2023/01/14 11:18:29;;;;;;;4.30;1.67;;;;;;;;;;5092032;28;20200;-80
2023/01/14 11:21:09;;;;;;;7.93;2.47;;;;;;;;;;5091782;28;20254;-80
2023/01/14 11:23:38;;;;;;;2.65;1.50;;;;;;;;;;5092949;28;20218;-80
2023/01/14 11:26:08;;;;;;;4.05;1.77;;;;;;;;;;5092486;28;20200;-80
2023/01/14 11:28:39;;;;;;;2.63;1.73;;;;;;;;;;5092436;28;20200;-80
2023/01/14 11:31:07;;;;;;;2.83;1.60;;;;;;;;;;5093288;28;20319;-80
2023/01/14 11:33:35;;;;;;;2.08;1.42;;;;;;;;;;5091914;28;20290;-80
2023/01/14 11:36:09;;;;;;;3.95;1.13;;;;;;;;;;5091926;28;20296;-79
2023/01/14 11:38:46;;;;;;;3.10;1.80;;;;;;;;;;5091549;28;20208;-79
2023/01/14 11:41:37;;;;;;;2.50;1.60;;;;;;;;;;5092418;28;20733;-79
2023/01/14 11:44:17;;;;;;;2.08;1.90;;;;;;;;;;5091860;28;20208;-80
2023/01/14 11:46:46;;;;;;;2.30;2.10;;;;;;;;;;5092559;28;20271;-81
2023/01/14 11:49:19;;;;;;;7.30;2.10;;;;;;;;;;5091866;28;20307;-80
2023/01/14 11:52:00;;;;;;;2.88;1.70;;;;;;;;;;5071861;28;20209;-81
2023/01/14 11:54:34;;;;;;;5.72;1.73;;;;;;;;;;5072009;28;20177;-80
2023/01/14 11:57:02;;;;;;;6.38;2.83;;;;;;;;;;5072090;28;20211;-80
2023/01/14 11:59:32;;;;;;;3.55;2.03;;;;;;;;;;5076841;28;20265;-80
2023/01/14 12:02:03;;;;;;;2.35;1.60;;;;;;;;;;5092142;28;20250;-80
2023/01/14 12:04:38;;;;;;;1.58;1.48;;;;;;;;;;5092056;28;20188;-79
2023/01/14 12:07:11;;;;;;;1.90;1.40;;;;;;;;;;5092423;28;20211;-80
2023/01/14 12:09:45;;;;;;;3.63;1.80;;;;;;;;;;5091308;28;20668;-79
2023/01/14 12:12:18;;;;;;;5.55;1.60;;;;;;;;;;5092447;28;20290;-78
2023/01/14 12:17:38;;;;;;;2.65;1.40;;;;;;;;;;5093726;28;20211;-79
2023/01/14 12:20:09;;;;;;;3.15;1.52;;;;;;;;;;5094235;28;20267;-79
2023/01/14 12:22:48;;;;;;;2.70;1.55;;;;;;;;;;5096617;28;20228;-79
2023/01/14 12:25:24;;;;;;;2.75;1.75;;;;;;;;;;5096607;28;20204;-80
2023/01/14 12:28:00;;;;;;;4.30;2.10;;;;;;;;;;5095712;28;20633;-79
2023/01/14 12:30:47;;;;;;;2.20;1.40;;;;;;;;;;5095889;28;20239;-79
2023/01/14 12:33:37;;;;;;;4.00;2.13;;;;;;;;;;5096386;28;20238;-79
2023/01/14 12:36:16;;;;;;;3.38;1.38;;;;;;;;;;5095459;28;20202;-79
2023/01/14 12:47:14;;;;;;;2.38;1.67;;;;;;;;;;5093569;28;20203;-79
2023/01/14 12:49:43;;;;;;;1.50;1.40;;;;;;;;;;5093781;28;20307;-79
2023/01/14 12:52:11;;;;;;;2.00;1.63;;;;;;;;;;5084079;28;20713;-78
2023/01/14 12:54:40;;;;;;;3.42;1.92;;;;;;;;;;5075429;28;20292;-79
2023/01/14 12:57:08;;;;;;;2.25;2.05;;;;;;;;;;5074800;28;20672;-79
2023/01/14 12:59:38;;;;;;;1.38;1.27;;;;;;;;;;5080998;28;20275;-79
2023/01/14 13:02:09;;;;;;;1.73;1.63;;;;;;;;;;5095110;28;20224;-80
2023/01/14 13:04:45;;;;;;;3.88;1.73;;;;;;;;;;5095670;28;20206;-79
2023/01/14 13:07:22;;;;;;;2.10;2.00;;;;;;;;;;5104531;28;20203;-80
2023/01/14 13:09:55;;;;;;;2.38;1.45;;;;;;;;;;5098789;28;20224;-78
2023/01/14 13:12:28;;;;;;;2.53;1.40;;;;;;;;;;5098818;28;20232;-80
2023/01/14 13:14:57;;;;;;;2.50;1.50;;;;;;;;;;5097881;28;20204;-80
2023/01/14 13:17:33;;;;;;;4.85;1.88;;;;;;;;;;5096027;28;20200;-80
2023/01/14 13:20:04;;;;;;;3.85;1.80;;;;;;;;;;5095130;28;20250;-80
2023/01/14 13:22:48;;;;;;;1.88;1.70;;;;;;;;;;5095146;28;20223;-81
2023/01/14 13:25:43;;;;;;;4.18;1.25;;;;;;;;;;5096133;28;20204;-80
2023/01/14 13:28:34;;;;;;;1.30;1.20;;;;;;;;;;5091299;28;20211;-80
2023/01/14 13:31:24;;;;;;;1.58;1.40;;;;;;;;;;5095088;28;20745;-80
2023/01/14 13:34:34;;;;;;;1.80;1.35;;;;;;;;;;5093738;28;20283;-79
2023/01/14 13:37:30;;;;;;;2.45;1.50;;;;;;;;;;5093088;28;20211;-80
2023/01/14 13:39:57;;;;;;;1.65;1.40;;;;;;;;;;5093907;28;20272;-79
2023/01/14 13:42:38;;;;;;;6.38;1.30;;;;;;;;;;5094391;28;20228;-80
2023/01/14 13:45:16;;;;;;;1.30;1.08;;;;;;;;;;5094133;28;20217;-79
2023/01/14 13:47:50;;;;;;;1.23;1.13;;;;;;;;;;5094024;28;20234;-79
2023/01/14 13:50:25;;;;;;;1.02;0.90;;;;;;;;;;5093685;28;20224;-79
2023/01/14 13:52:57;;;;;;;4.63;1.60;;;;;;;;;;5094795;28;20283;-78
2023/01/14 13:55:28;;;;;;;1.15;1.10;;;;;;;;;;5093784;28;20205;-79
2023/01/14 13:58:00;;;;;;;1.25;1.20;;;;;;;;;;5094072;28;20214;-79
2023/01/14 14:00:37;;;;;;;1.65;0.90;;;;;;;;;;5093754;28;20297;-78
2023/01/14 14:03:37;;;;;;;1.42;1.25;;;;;;;;;;5094348;28;20211;-78
2023/01/14 14:06:42;;;;;;;1.38;1.38;;;;;;;;;;5070462;28;20208;-80
2023/01/14 14:09:32;;;;;;;2.17;1.42;;;;;;;;;;5081161;28;20288;-80
2023/01/14 14:15:00;;;;;;;0.98;0.98;;;;;;;;;;5092955;28;20684;-80
2023/01/14 14:17:33;;;;;;;1.63;1.00;;;;;;;;;;5075640;28;20201;-80
2023/01/14 14:20:03;;;;;;;1.05;0.90;;;;;;;;;;5078675;28;20258;-79
2023/01/14 14:22:43;;;;;;;1.10;1.00;;;;;;;;;;5092692;28;20227;-80
2023/01/14 14:25:18;;;;;;;1.00;0.90;;;;;;;;;;5092833;28;20214;-79
2023/01/14 14:27:48;;;;;;;0.73;0.73;;;;;;;;;;5093246;28;20211;-80
2023/01/14 14:30:23;;;;;;;1.33;0.82;;;;;;;;;;5091858;28;20238;-80
2023/01/14 14:32:51;;;;;;;1.15;0.93;;;;;;;;;;5092902;28;20195;-79
2023/01/14 14:35:20;;;;;;;2.20;1.10;;;;;;;;;;5092329;28;20287;-80
2023/01/14 14:37:50;;;;;;;1.98;1.27;;;;;;;;;;5092761;28;20200;-79
2023/01/14 14:40:20;;;;;;;1.42;1.33;;;;;;;;;;5091833;28;20224;-79
2023/01/14 14:42:47;;;;;;;3.00;1.48;;;;;;;;;;5092290;28;20853;-80
2023/01/14 14:45:32;;;;;;;1.05;0.90;;;;;;;;;;5093149;28;20291;-80
2023/01/14 14:48:01;;;;;;;1.15;1.00;;;;;;;;;;5091762;28;20204;-79
2023/01/14 14:50:32;;;;;;;1.40;1.10;;;;;;;;;;5092938;28;20238;-80
2023/01/14 14:53:00;;;;;;;1.70;1.00;;;;;;;;;;5106372;28;20204;-80
2023/01/14 14:55:29;;;;;;;1.77;1.02;;;;;;;;;;5108637;28;20786;-79
2023/01/14 14:57:57;;;;;;;1.30;1.00;;;;;;;;;;5109521;28;20287;-83
2023/01/14 15:00:26;;;;;;;2.88;0.95;;;;;;;;;;5107772;28;20239;-81
2023/01/14 15:02:58;;;;;;;0.80;0.80;;;;;;;;;;5104542;28;20216;-79
2023/01/14 15:05:28;;;;;;;1.10;1.00;;;;;;;;;;5097507;28;20612;-81
2023/01/14 15:07:57;;;;;;;0.90;0.90;;;;;;;;;;5094691;28;20706;-82
2023/01/14 15:10:26;;;;;;;0.70;0.70;;;;;;;;;;5094286;28;20688;-81
2023/01/14 15:12:54;;;;;;;1.02;1.02;;;;;;;;;;5093996;28;20298;-81
2023/01/14 15:15:25;;;;;;;0.70;0.70;;;;;;;;;;5093581;28;20200;-82
2023/01/14 15:18:05;;;;;;;1.08;0.90;;;;;;;;;;5093810;28;20279;-81
2023/01/14 15:20:32;;;;;;;0.80;0.80;;;;;;;;;;5093287;28;20259;-79
2023/01/14 15:23:00;;;;;;;1.00;1.00;;;;;;;;;;5093091;28;20675;-81
2023/01/14 15:25:29;;;;;;;1.70;1.10;;;;;;;;;;5092690;28;20264;-80
2023/01/14 15:27:57;;;;;;;0.70;0.70;;;;;;;;;;5093117;28;20296;-80
2023/01/14 15:30:26;;;;;;;0.82;0.82;;;;;;;;;;5116146;22;20315;-88
2023/01/14 15:32:55;;;;;;;1.05;0.90;;;;;;;;;;5071507;28;20217;-88
2023/01/14 15:35:27;;;;;;;1.17;0.90;;;;;;;;;;5071807;28;20221;-88
2023/01/14 15:37:57;;;;;;;2.58;1.75;;;;;;;;;;5072013;28;20200;-88
2023/01/14 15:40:31;;;;;;;0.88;0.88;;;;;;;;;;5072150;28;20226;-88
2023/01/14 15:42:59;;;;;;;0.90;0.90;;;;;;;;;;5072601;28;20910;-89
2023/01/14 15:45:29;;;;;;;0.80;0.80;;;;;;;;;;5072321;28;20939;-88
2023/01/14 15:47:58;;;;;;;1.10;1.00;;;;;;;;;;5072203;28;20668;-89
2023/01/14 15:50:32;;;;;;;1.40;0.90;;;;;;;;;;5072439;28;20197;-89
2023/01/14 15:53:20;;;;;;;3.25;1.30;;;;;;;;;;5072112;28;20239;-88
2023/01/14 15:56:07;;;;;;;1.63;1.52;;;;;;;;;;5076562;28;20296;-87
2023/01/14 15:58:37;;;;;;;1.00;1.00;;;;;;;;;;5076015;28;20279;-88
2023/01/14 16:01:21;;;;;;;1.60;0.95;;;;;;;;;;5075935;28;20300;-87
2023/01/14 16:03:50;;;;;;;1.02;1.00;;;;;;;;;;5075838;28;20217;-88
2023/01/14 16:06:31;;;;;;;4.90;1.08;;;;;;;;;;5075814;28;20280;-88
2023/01/14 16:09:00;;;;;;;0.90;0.90;;;;;;;;;;5075556;28;20181;-88